createdAt,value
2022-10-12T00:01:38.732Z,101175.00
2022-10-12T00:07:40.976Z,101167.00
2022-10-12T00:13:43.400Z,101169.00
2022-10-12T00:19:45.722Z,101175.00
2022-10-12T00:25:47.983Z,101166.00
2022-10-12T00:31:50.080Z,101166.00
2022-10-12T00:37:55.705Z,101167.00
2022-10-12T00:43:58.857Z,101168.00
2022-10-12T00:50:11.842Z,101166.00
2022-10-12T00:56:20.058Z,101166.00
2022-10-12T01:02:25.518Z,101159.00
2022-10-12T01:08:29.133Z,101159.00
2022-10-12T01:14:31.229Z,101165.00
2022-10-12T01:27:45.275Z,101164.00
2022-10-12T01:33:58.467Z,101164.00
2022-10-12T01:40:07.864Z,101175.00
2022-10-12T01:46:13.037Z,101175.00
2022-10-12T01:52:17.862Z,101182.00
2022-10-12T01:59:07.776Z,101186.00
2022-10-12T02:05:33.135Z,101197.00
2022-10-12T02:11:39.091Z,101199.00
2022-10-12T02:17:42.590Z,101201.00
2022-10-12T02:23:46.647Z,101194.00
2022-10-12T02:29:49.556Z,101197.00
2022-10-12T02:35:59.094Z,101195.00
2022-10-12T02:42:08.377Z,101193.00
2022-10-12T02:48:13.861Z,101198.00
2022-10-12T02:54:16.264Z,101192.00
2022-10-12T03:00:18.664Z,101189.00
2022-10-12T03:06:21.011Z,101196.00
2022-10-12T03:12:23.165Z,101196.00
2022-10-12T03:18:25.235Z,101199.00
2022-10-12T03:24:27.290Z,101206.00
2022-10-12T03:30:29.497Z,101210.00
2022-10-12T03:36:32.394Z,101218.00
2022-10-12T03:42:34.598Z,101217.00
2022-10-12T03:48:36.690Z,101222.00
2022-10-12T03:54:38.742Z,101223.00
2022-10-12T04:00:40.710Z,101221.00
2022-10-12T04:06:42.828Z,101216.00
2022-10-12T04:12:45.279Z,101218.00
2022-10-12T04:18:47.375Z,101217.00
2022-10-12T04:24:49.606Z,101227.00
2022-10-12T04:30:51.990Z,101234.00
2022-10-12T04:36:54.244Z,101238.00
2022-10-12T04:42:56.426Z,101240.00
2022-10-12T04:48:58.431Z,101245.00
2022-10-12T04:55:00.543Z,101250.00
2022-10-12T05:01:02.595Z,101255.00
2022-10-12T05:07:04.780Z,101258.00
2022-10-12T05:13:07.461Z,101266.00
2022-10-12T05:19:09.973Z,101271.00
2022-10-12T05:25:12.153Z,101273.00
2022-10-12T05:31:14.324Z,101274.00
2022-10-12T05:37:16.531Z,101281.00
2022-10-12T05:43:18.735Z,101291.00
2022-10-12T05:49:20.842Z,101306.00
2022-10-12T05:55:23.084Z,101310.00
2022-10-12T06:01:25.392Z,101312.00
2022-10-12T06:07:28.179Z,101323.00
2022-10-12T06:13:30.296Z,101336.00
2022-10-12T06:19:32.509Z,101342.00
2022-10-12T06:25:34.745Z,101336.00
2022-10-12T06:31:38.658Z,101350.00
2022-10-12T06:37:51.527Z,101356.00
2022-10-12T06:43:53.736Z,101356.00
2022-10-12T06:49:55.825Z,101356.00
2022-10-12T06:55:57.741Z,101351.00
2022-10-12T07:01:59.921Z,101352.00
2022-10-12T07:08:01.956Z,101355.00
2022-10-12T07:14:04.219Z,101348.00
2022-10-12T07:20:07.793Z,101352.00
2022-10-12T07:26:09.941Z,101349.00
2022-10-12T07:32:12.046Z,101340.00
2022-10-12T07:38:14.083Z,101357.00
2022-10-12T07:44:16.465Z,101357.00
2022-10-12T07:50:18.659Z,101364.00
2022-10-12T07:56:21.083Z,101358.00
2022-10-12T08:02:23.278Z,101346.00
2022-10-12T08:08:25.324Z,101345.00
2022-10-12T08:14:27.944Z,101359.00
2022-10-12T08:20:30.017Z,101348.00
2022-10-12T08:26:33.587Z,101334.00
2022-10-12T08:32:35.805Z,101334.00
2022-10-12T08:38:43.368Z,101363.00
2022-10-12T08:45:21.168Z,101368.00
2022-10-12T08:51:27.376Z,101369.00
2022-10-12T08:57:29.592Z,101373.00
2022-10-12T09:03:47.708Z,101365.00
2022-10-12T09:09:58.588Z,101357.00
2022-10-12T09:16:05.253Z,101359.00
2022-10-12T09:22:20.079Z,101356.00
2022-10-12T09:28:29.425Z,101346.00
2022-10-12T09:34:32.175Z,101350.00
2022-10-12T09:40:34.203Z,101360.00
2022-10-12T09:46:41.521Z,101364.00
2022-10-12T09:52:45.314Z,101361.00
2022-10-12T09:59:00.759Z,101359.00
2022-10-12T10:11:33.281Z,101342.00
2022-10-12T10:17:35.294Z,101344.00
2022-10-12T10:23:43.487Z,101337.00
2022-10-12T10:29:45.801Z,101332.00
2022-10-12T10:36:13.749Z,101330.00
2022-10-12T10:42:32.590Z,101323.00
2022-10-12T10:48:57.000Z,101312.00
2022-10-12T10:55:11.742Z,101299.00
2022-10-12T11:01:23.430Z,101288.00
2022-10-12T11:07:36.123Z,101282.00
2022-10-12T11:13:41.416Z,101277.00
2022-10-12T11:19:52.395Z,101281.00
2022-10-12T11:26:36.590Z,101292.00
2022-10-12T11:33:03.899Z,101297.00
2022-10-12T11:39:14.198Z,101289.00
2022-10-12T11:45:29.963Z,101298.00
2022-10-12T11:51:32.411Z,101285.00
2022-10-12T11:57:38.299Z,101280.00
2022-10-12T12:10:42.145Z,101285.00
2022-10-12T12:16:44.452Z,101279.00
2022-10-12T12:22:52.476Z,101274.00
2022-10-12T12:29:25.283Z,101268.00
2022-10-12T12:35:52.550Z,101278.00
2022-10-12T12:42:02.361Z,101268.00
2022-10-12T12:48:09.880Z,101283.00
2022-10-12T12:54:23.222Z,101279.00
2022-10-12T13:00:56.939Z,101268.00
2022-10-12T13:07:20.447Z,101271.00
2022-10-12T13:14:00.000Z,101272.00
2022-10-12T13:20:16.946Z,101269.00
2022-10-12T13:26:24.907Z,101268.00
2022-10-12T13:32:32.902Z,101270.00
2022-10-12T13:38:38.913Z,101265.00
2022-10-12T13:44:42.453Z,101275.00
2022-10-12T13:50:56.613Z,101274.00
2022-10-12T13:57:16.053Z,101279.00
2022-10-12T14:03:18.256Z,101279.00
2022-10-12T14:09:24.366Z,101276.00
2022-10-12T14:15:32.240Z,101281.00
2022-10-12T14:21:36.841Z,101285.00
2022-10-12T14:27:40.378Z,101283.00
2022-10-12T14:33:43.302Z,101289.00
2022-10-12T14:39:48.450Z,101287.00
2022-10-12T14:45:52.627Z,101286.00
2022-10-12T14:51:55.814Z,101288.00
2022-10-12T14:57:58.068Z,101286.00
2022-10-12T15:04:00.467Z,101291.00
2022-10-12T15:10:02.837Z,101293.00
2022-10-12T15:16:20.197Z,101285.00
2022-10-12T15:22:26.979Z,101286.00
2022-10-12T15:28:30.279Z,101289.00
2022-10-12T15:34:32.406Z,101292.00
2022-10-12T15:40:34.867Z,101298.00
2022-10-12T15:46:37.205Z,101293.00
2022-10-12T15:52:39.383Z,101299.00
2022-10-12T15:58:41.481Z,101299.00
2022-10-12T16:04:43.921Z,101310.00
2022-10-12T16:10:48.084Z,101312.00
2022-10-12T16:16:50.114Z,101315.00
2022-10-12T16:22:52.621Z,101308.00
2022-10-12T16:28:54.796Z,101319.00
2022-10-12T16:41:34.513Z,101313.00
2022-10-12T16:47:41.961Z,101318.00
2022-10-12T16:53:45.333Z,101306.00
2022-10-12T16:59:48.535Z,101316.00
2022-10-12T17:05:59.160Z,101305.00
2022-10-12T17:12:01.254Z,101310.00
2022-10-12T17:18:03.582Z,101311.00
2022-10-12T17:24:06.418Z,101315.00
2022-10-12T17:30:08.689Z,101317.00
2022-10-12T17:36:11.747Z,101314.00
2022-10-12T17:42:21.157Z,101316.00
2022-10-12T17:48:23.880Z,101317.00
2022-10-12T17:54:27.228Z,101323.00
2022-10-12T18:00:29.634Z,101319.00
2022-10-12T18:06:33.631Z,101317.00
2022-10-12T18:12:35.855Z,101325.00
2022-10-12T18:18:38.816Z,101323.00
2022-10-12T18:24:41.095Z,101327.00
2022-10-12T18:30:47.953Z,101328.00
2022-10-12T18:36:50.166Z,101328.00
2022-10-12T18:42:52.268Z,101330.00
2022-10-12T18:48:54.612Z,101326.00
2022-10-12T18:54:57.182Z,101325.00
2022-10-12T19:00:59.949Z,101322.00
2022-10-12T19:07:02.437Z,101336.00
2022-10-12T19:13:04.739Z,101338.00
2022-10-12T19:19:14.807Z,101335.00
2022-10-12T19:25:19.524Z,101342.00
2022-10-12T19:31:27.945Z,101333.00
2022-10-12T19:37:30.187Z,101320.00
2022-10-12T19:43:33.980Z,101324.00
2022-10-12T19:49:37.879Z,101328.00
2022-10-12T19:55:42.344Z,101330.00
2022-10-12T20:01:48.308Z,101321.00
2022-10-12T20:07:50.779Z,101334.00
2022-10-12T20:13:53.525Z,101332.00
2022-10-12T20:19:56.833Z,101336.00
2022-10-12T20:25:58.857Z,101329.00
2022-10-12T20:32:01.267Z,101328.00
2022-10-12T20:38:04.321Z,101317.00
2022-10-12T20:44:06.441Z,101323.00
2022-10-12T20:50:08.899Z,101321.00
2022-10-12T20:56:11.687Z,101326.00
2022-10-12T21:02:13.941Z,101328.00
2022-10-12T21:08:15.991Z,101335.00
2022-10-12T21:14:18.312Z,101330.00
2022-10-12T21:20:20.402Z,101332.00
2022-10-12T21:26:24.285Z,101333.00
2022-10-12T21:32:26.694Z,101339.00
2022-10-12T21:38:30.884Z,101332.00
2022-10-12T21:44:33.120Z,101340.00
2022-10-12T21:50:35.645Z,101337.00
2022-10-12T21:56:38.217Z,101344.00
2022-10-12T22:02:40.689Z,101342.00
2022-10-12T22:08:43.734Z,101343.00
2022-10-12T22:14:48.725Z,101334.00
2022-10-12T22:20:53.422Z,101332.00
2022-10-12T22:26:55.898Z,101328.00
2022-10-12T22:32:58.194Z,101339.00
2022-10-12T22:39:00.482Z,101338.00
2022-10-12T22:45:03.060Z,101343.00
2022-10-12T22:51:07.253Z,101338.00
2022-10-12T22:57:10.077Z,101342.00
2022-10-12T23:03:12.869Z,101349.00
2022-10-12T23:09:15.137Z,101331.00
2022-10-12T23:15:17.879Z,101358.00
2022-10-12T23:21:20.890Z,101342.00
2022-10-12T23:27:22.890Z,101337.00
2022-10-12T23:33:25.205Z,101334.00
2022-10-12T23:39:27.280Z,101345.00
2022-10-12T23:45:29.346Z,101347.00
2022-10-12T23:51:31.570Z,101345.00
2022-10-12T23:57:46.709Z,101337.00
